sensor_id;sensor_type;location;lat;lon;timestamp;P1;durP1;ratioP1;P2;durP2;ratioP2
49946;SDS011;35839;48.662;13.300;2023-05-16T05:07:56;20.63;;;15.15;;
49946;SDS011;35839;48.662;13.300;2023-05-16T05:10:22;25.33;;;16.23;;
49946;SDS011;35839;48.662;13.300;2023-05-16T05:12:47;26.40;;;18.35;;
49946;SDS011;35839;48.662;13.300;2023-05-16T05:15:12;27.77;;;18.05;;
49946;SDS011;35839;48.662;13.300;2023-05-16T05:17:38;23.48;;;17.33;;
49946;SDS011;35839;48.662;13.300;2023-05-16T05:20:03;24.90;;;18.42;;
49946;SDS011;35839;48.662;13.300;2023-05-16T05:22:32;29.20;;;18.17;;
49946;SDS011;35839;48.662;13.300;2023-05-16T05:24:58;26.77;;;18.05;;
49946;SDS011;35839;48.662;13.300;2023-05-16T05:27:23;25.40;;;18.23;;
49946;SDS011;35839;48.662;13.300;2023-05-16T05:29:49;24.15;;;18.13;;
49946;SDS011;35839;48.662;13.300;2023-05-16T05:32:14;27.55;;;19.77;;
49946;SDS011;35839;48.662;13.300;2023-05-16T05:34:39;29.35;;;18.98;;
49946;SDS011;35839;48.662;13.300;2023-05-16T05:37:05;27.08;;;17.98;;
49946;SDS011;35839;48.662;13.300;2023-05-16T05:39:30;24.40;;;18.05;;
49946;SDS011;35839;48.662;13.300;2023-05-16T05:41:55;29.45;;;18.80;;
49946;SDS011;35839;48.662;13.300;2023-05-16T05:44:21;25.17;;;18.25;;
49946;SDS011;35839;48.662;13.300;2023-05-16T05:46:46;27.90;;;19.63;;
49946;SDS011;35839;48.662;13.300;2023-05-16T05:49:11;22.73;;;17.65;;
49946;SDS011;35839;48.662;13.300;2023-05-16T05:51:37;29.52;;;20.55;;
49946;SDS011;35839;48.662;13.300;2023-05-16T05:54:02;25.85;;;19.23;;
49946;SDS011;35839;48.662;13.300;2023-05-16T05:56:28;28.27;;;21.15;;
49946;SDS011;35839;48.662;13.300;2023-05-16T05:58:53;24.98;;;18.85;;
49946;SDS011;35839;48.662;13.300;2023-05-16T06:01:18;23.13;;;18.83;;
49946;SDS011;35839;48.662;13.300;2023-05-16T06:03:47;25.80;;;17.40;;
49946;SDS011;35839;48.662;13.300;2023-05-16T06:06:12;25.55;;;18.17;;
49946;SDS011;35839;48.662;13.300;2023-05-16T06:08:39;20.63;;;17.45;;
49946;SDS011;35839;48.662;13.300;2023-05-16T06:11:04;20.95;;;16.45;;
49946;SDS011;35839;48.662;13.300;2023-05-16T06:13:30;26.50;;;18.45;;
49946;SDS011;35839;48.662;13.300;2023-05-16T06:15:55;23.55;;;19.17;;
49946;SDS011;35839;48.662;13.300;2023-05-16T06:18:20;25.88;;;19.95;;
49946;SDS011;35839;48.662;13.300;2023-05-16T06:20:46;22.77;;;18.10;;
49946;SDS011;35839;48.662;13.300;2023-05-16T06:23:13;28.98;;;21.25;;
49946;SDS011;35839;48.662;13.300;2023-05-16T06:25:38;23.70;;;18.75;;
49946;SDS011;35839;48.662;13.300;2023-05-16T06:28:03;27.13;;;19.27;;
49946;SDS011;35839;48.662;13.300;2023-05-16T06:30:29;22.98;;;18.88;;
49946;SDS011;35839;48.662;13.300;2023-05-16T06:32:54;25.05;;;19.23;;
49946;SDS011;35839;48.662;13.300;2023-05-16T06:35:20;23.45;;;18.70;;
49946;SDS011;35839;48.662;13.300;2023-05-16T06:37:45;24.00;;;18.50;;
49946;SDS011;35839;48.662;13.300;2023-05-16T06:40:10;23.23;;;18.52;;
49946;SDS011;35839;48.662;13.300;2023-05-16T06:42:36;24.35;;;18.40;;
49946;SDS011;35839;48.662;13.300;2023-05-16T06:45:01;20.05;;;17.08;;
49946;SDS011;35839;48.662;13.300;2023-05-16T06:47:27;24.20;;;18.40;;
49946;SDS011;35839;48.662;13.300;2023-05-16T06:49:52;23.13;;;18.35;;
49946;SDS011;35839;48.662;13.300;2023-05-16T06:52:18;21.00;;;17.35;;
49946;SDS011;35839;48.662;13.300;2023-05-16T06:54:43;21.65;;;16.88;;
49946;SDS011;35839;48.662;13.300;2023-05-16T06:57:08;21.80;;;17.23;;
49946;SDS011;35839;48.662;13.300;2023-05-16T06:59:34;20.42;;;17.02;;
49946;SDS011;35839;48.662;13.300;2023-05-16T07:02:00;20.58;;;17.85;;
49946;SDS011;35839;48.662;13.300;2023-05-16T07:04:26;22.67;;;17.98;;
49946;SDS011;35839;48.662;13.300;2023-05-16T07:06:52;23.83;;;17.80;;
49946;SDS011;35839;48.662;13.300;2023-05-16T07:09:18;21.98;;;18.05;;
49946;SDS011;35839;48.662;13.300;2023-05-16T07:11:43;20.65;;;17.35;;
49946;SDS011;35839;48.662;13.300;2023-05-16T07:14:08;23.80;;;18.38;;
49946;SDS011;35839;48.662;13.300;2023-05-16T07:16:34;23.15;;;17.48;;
49946;SDS011;35839;48.662;13.300;2023-05-16T07:18:59;23.58;;;17.35;;
49946;SDS011;35839;48.662;13.300;2023-05-16T07:21:25;23.98;;;18.80;;
49946;SDS011;35839;48.662;13.300;2023-05-16T07:23:50;20.85;;;17.52;;
49946;SDS011;35839;48.662;13.300;2023-05-16T07:26:16;21.25;;;17.05;;
49946;SDS011;35839;48.662;13.300;2023-05-16T07:28:41;21.38;;;17.38;;
49946;SDS011;35839;48.662;13.300;2023-05-16T07:31:06;23.75;;;18.95;;
49946;SDS011;35839;48.662;13.300;2023-05-16T07:33:32;26.60;;;18.10;;
49946;SDS011;35839;48.662;13.300;2023-05-16T07:35:57;20.63;;;16.90;;
49946;SDS011;35839;48.662;13.300;2023-05-16T07:38:23;21.05;;;16.70;;
49946;SDS011;35839;48.662;13.300;2023-05-16T07:40:48;21.10;;;16.63;;
49946;SDS011;35839;48.662;13.300;2023-05-16T07:43:13;22.63;;;18.55;;
49946;SDS011;35839;48.662;13.300;2023-05-16T07:45:38;21.08;;;17.83;;
49946;SDS011;35839;48.662;13.300;2023-05-16T07:48:04;21.98;;;17.80;;
49946;SDS011;35839;48.662;13.300;2023-05-16T07:50:29;24.90;;;17.42;;
49946;SDS011;35839;48.662;13.300;2023-05-16T07:52:54;18.38;;;16.13;;
49946;SDS011;35839;48.662;13.300;2023-05-16T07:55:20;20.92;;;17.05;;
49946;SDS011;35839;48.662;13.300;2023-05-16T07:57:46;23.02;;;17.00;;
49946;SDS011;35839;48.662;13.300;2023-05-16T08:00:12;21.98;;;17.10;;
49946;SDS011;35839;48.662;13.300;2023-05-16T08:02:38;17.38;;;15.45;;
49946;SDS011;35839;48.662;13.300;2023-05-16T08:05:03;18.08;;;15.70;;
49946;SDS011;35839;48.662;13.300;2023-05-16T08:07:29;16.38;;;14.35;;
49946;SDS011;35839;48.662;13.300;2023-05-16T08:09:55;17.70;;;15.27;;
49946;SDS011;35839;48.662;13.300;2023-05-16T08:12:20;18.83;;;14.95;;
49946;SDS011;35839;48.662;13.300;2023-05-16T08:14:45;19.15;;;14.95;;
49946;SDS011;35839;48.662;13.300;2023-05-16T08:17:11;17.73;;;15.05;;
49946;SDS011;35839;48.662;13.300;2023-05-16T08:19:36;17.90;;;15.27;;
49946;SDS011;35839;48.662;13.300;2023-05-16T08:22:01;16.23;;;14.10;;
49946;SDS011;35839;48.662;13.300;2023-05-16T08:24:27;16.48;;;14.55;;
49946;SDS011;35839;48.662;13.300;2023-05-16T08:26:52;17.92;;;13.82;;
49946;SDS011;35839;48.662;13.300;2023-05-16T08:29:18;17.42;;;14.68;;
49946;SDS011;35839;48.662;13.300;2023-05-16T08:31:43;18.23;;;15.23;;
49946;SDS011;35839;48.662;13.300;2023-05-16T08:34:08;16.75;;;13.93;;
49946;SDS011;35839;48.662;13.300;2023-05-16T08:36:35;16.25;;;14.15;;
49946;SDS011;35839;48.662;13.300;2023-05-16T08:39:00;16.33;;;14.20;;
49946;SDS011;35839;48.662;13.300;2023-05-16T08:41:26;18.35;;;14.05;;
49946;SDS011;35839;48.662;13.300;2023-05-16T08:43:51;16.90;;;14.27;;
49946;SDS011;35839;48.662;13.300;2023-05-16T08:46:17;16.00;;;13.98;;
49946;SDS011;35839;48.662;13.300;2023-05-16T08:48:46;13.50;;;12.10;;
49946;SDS011;35839;48.662;13.300;2023-05-16T08:51:15;14.32;;;12.32;;
49946;SDS011;35839;48.662;13.300;2023-05-16T08:53:44;15.02;;;13.43;;
49946;SDS011;35839;48.662;13.300;2023-05-16T08:56:14;14.23;;;12.68;;
49946;SDS011;35839;48.662;13.300;2023-05-16T08:58:41;17.05;;;12.38;;
49946;SDS011;35839;48.662;13.300;2023-05-16T09:01:06;19.67;;;12.15;;
49946;SDS011;35839;48.662;13.300;2023-05-16T09:03:33;13.68;;;12.18;;
49946;SDS011;35839;48.662;13.300;2023-05-16T09:06:00;11.80;;;10.27;;
49946;SDS011;35839;48.662;13.300;2023-05-16T09:08:26;11.00;;;9.90;;
49946;SDS011;35839;48.662;13.300;2023-05-16T09:10:52;13.38;;;9.98;;
49946;SDS011;35839;48.662;13.300;2023-05-16T09:13:17;9.73;;;8.73;;
49946;SDS011;35839;48.662;13.300;2023-05-16T09:15:42;9.07;;;8.18;;
49946;SDS011;35839;48.662;13.300;2023-05-16T09:18:11;12.40;;;9.95;;
49946;SDS011;35839;48.662;13.300;2023-05-16T09:20:37;10.93;;;9.77;;
49946;SDS011;35839;48.662;13.300;2023-05-16T09:23:10;12.15;;;9.73;;
49946;SDS011;35839;48.662;13.300;2023-05-16T09:25:35;10.35;;;8.95;;
49946;SDS011;35839;48.662;13.300;2023-05-16T09:28:01;11.88;;;10.35;;
49946;SDS011;35839;48.662;13.300;2023-05-16T09:30:27;12.20;;;9.07;;
49946;SDS011;35839;48.662;13.300;2023-05-16T09:32:54;12.55;;;10.23;;
49946;SDS011;35839;48.662;13.300;2023-05-16T09:35:20;12.55;;;10.23;;
49946;SDS011;35839;48.662;13.300;2023-05-16T09:37:47;14.73;;;9.70;;
49946;SDS011;35839;48.662;13.300;2023-05-16T09:40:13;11.00;;;9.27;;
49946;SDS011;35839;48.662;13.300;2023-05-16T09:42:40;10.68;;;8.85;;
49946;SDS011;35839;48.662;13.300;2023-05-16T09:45:06;11.98;;;10.00;;
49946;SDS011;35839;48.662;13.300;2023-05-16T09:47:36;11.70;;;9.65;;
49946;SDS011;35839;48.662;13.300;2023-05-16T09:50:09;13.90;;;11.50;;
49946;SDS011;35839;48.662;13.300;2023-05-16T09:52:36;11.73;;;10.10;;
49946;SDS011;35839;48.662;13.300;2023-05-16T09:55:01;11.73;;;10.15;;
49946;SDS011;35839;48.662;13.300;2023-05-16T09:57:30;12.70;;;9.73;;
49946;SDS011;35839;48.662;13.300;2023-05-16T09:59:55;9.90;;;8.82;;
49946;SDS011;35839;48.662;13.300;2023-05-16T10:02:25;11.30;;;8.93;;
49946;SDS011;35839;48.662;13.300;2023-05-16T10:04:50;10.10;;;9.13;;
49946;SDS011;35839;48.662;13.300;2023-05-16T10:07:16;10.00;;;9.02;;
49946;SDS011;35839;48.662;13.300;2023-05-16T10:09:41;10.85;;;9.73;;
49946;SDS011;35839;48.662;13.300;2023-05-16T10:12:07;11.02;;;9.68;;
49946;SDS011;35839;48.662;13.300;2023-05-16T10:14:36;9.48;;;8.50;;
49946;SDS011;35839;48.662;13.300;2023-05-16T10:17:03;8.52;;;7.68;;
49946;SDS011;35839;48.662;13.300;2023-05-16T10:19:31;10.55;;;9.10;;
49946;SDS011;35839;48.662;13.300;2023-05-16T10:22:03;12.63;;;8.88;;
49946;SDS011;35839;48.662;13.300;2023-05-16T10:24:38;11.10;;;9.55;;
49946;SDS011;35839;48.662;13.300;2023-05-16T10:27:42;9.63;;;8.60;;
49946;SDS011;35839;48.662;13.300;2023-05-16T10:30:09;9.73;;;8.10;;
49946;SDS011;35839;48.662;13.300;2023-05-16T10:32:34;9.73;;;8.18;;
49946;SDS011;35839;48.662;13.300;2023-05-16T10:35:01;11.25;;;8.52;;
49946;SDS011;35839;48.662;13.300;2023-05-16T10:37:28;11.02;;;7.60;;
49946;SDS011;35839;48.662;13.300;2023-05-16T10:39:56;9.80;;;8.80;;
49946;SDS011;35839;48.662;13.300;2023-05-16T10:42:23;10.40;;;9.30;;
49946;SDS011;35839;48.662;13.300;2023-05-16T10:44:48;8.05;;;7.07;;
49946;SDS011;35839;48.662;13.300;2023-05-16T10:47:18;8.77;;;7.93;;
49946;SDS011;35839;48.662;13.300;2023-05-16T10:49:44;11.57;;;8.25;;
49946;SDS011;35839;48.662;13.300;2023-05-16T10:52:10;11.23;;;9.35;;
49946;SDS011;35839;48.662;13.300;2023-05-16T10:54:37;13.88;;;11.38;;
49946;SDS011;35839;48.662;13.300;2023-05-16T10:57:25;12.45;;;10.98;;
49946;SDS011;35839;48.662;13.300;2023-05-16T10:59:50;13.15;;;11.05;;
49946;SDS011;35839;48.662;13.300;2023-05-16T11:04:53;13.27;;;11.55;;
49946;SDS011;35839;48.662;13.300;2023-05-16T11:07:23;14.02;;;11.05;;
49946;SDS011;35839;48.662;13.300;2023-05-16T11:12:41;14.20;;;12.20;;
49946;SDS011;35839;48.662;13.300;2023-05-16T11:15:27;13.43;;;12.00;;
49946;SDS011;35839;48.662;13.300;2023-05-16T11:20:35;16.20;;;13.85;;
49946;SDS011;35839;48.662;13.300;2023-05-16T11:23:34;17.80;;;14.15;;
49946;SDS011;35839;48.662;13.300;2023-05-16T11:25:56;17.25;;;14.27;;
49946;SDS011;35839;48.662;13.300;2023-05-16T11:28:24;19.88;;;14.60;;
49946;SDS011;35839;48.662;13.300;2023-05-16T11:30:51;16.77;;;14.35;;
49946;SDS011;35839;48.662;13.300;2023-05-16T11:33:20;16.85;;;15.13;;
49946;SDS011;35839;48.662;13.300;2023-05-16T11:35:59;15.48;;;13.48;;
49946;SDS011;35839;48.662;13.300;2023-05-16T11:38:28;20.38;;;15.60;;
49946;SDS011;35839;48.662;13.300;2023-05-16T11:41:00;17.42;;;15.55;;
49946;SDS011;35839;48.662;13.300;2023-05-16T11:43:35;18.27;;;15.70;;
49946;SDS011;35839;48.662;13.300;2023-05-16T11:46:05;29.90;;;24.55;;
49946;SDS011;35839;48.662;13.300;2023-05-16T11:48:31;22.52;;;16.80;;
49946;SDS011;35839;48.662;13.300;2023-05-16T11:50:57;12.75;;;11.45;;
49946;SDS011;35839;48.662;13.300;2023-05-16T11:53:23;14.20;;;12.10;;
49946;SDS011;35839;48.662;13.300;2023-05-16T11:55:48;13.45;;;12.00;;
49946;SDS011;35839;48.662;13.300;2023-05-16T11:58:16;18.93;;;12.97;;
49946;SDS011;35839;48.662;13.300;2023-05-16T12:00:49;15.48;;;13.85;;
49946;SDS011;35839;48.662;13.300;2023-05-16T12:03:16;11.30;;;9.85;;
49946;SDS011;35839;48.662;13.300;2023-05-16T12:05:53;12.40;;;9.88;;
49946;SDS011;35839;48.662;13.300;2023-05-16T12:08:20;19.05;;;14.65;;
49946;SDS011;35839;48.662;13.300;2023-05-16T12:10:49;14.88;;;13.30;;
49946;SDS011;35839;48.662;13.300;2023-05-16T12:13:17;15.07;;;13.35;;
49946;SDS011;35839;48.662;13.300;2023-05-16T12:15:44;14.60;;;13.15;;
49946;SDS011;35839;48.662;13.300;2023-05-16T12:18:09;13.20;;;11.88;;
49946;SDS011;35839;48.662;13.300;2023-05-16T12:20:35;14.52;;;13.02;;
49946;SDS011;35839;48.662;13.300;2023-05-16T12:23:01;13.27;;;10.57;;
49946;SDS011;35839;48.662;13.300;2023-05-16T12:25:33;12.57;;;11.18;;
49946;SDS011;35839;48.662;13.300;2023-05-16T12:28:05;11.40;;;10.40;;
49946;SDS011;35839;48.662;13.300;2023-05-16T12:30:32;13.73;;;10.73;;
49946;SDS011;35839;48.662;13.300;2023-05-16T12:32:58;12.02;;;7.63;;
49946;SDS011;35839;48.662;13.300;2023-05-16T12:35:28;7.85;;;6.25;;
49946;SDS011;35839;48.662;13.300;2023-05-16T12:37:55;9.45;;;5.93;;
49946;SDS011;35839;48.662;13.300;2023-05-16T12:40:20;6.25;;;5.05;;
49946;SDS011;35839;48.662;13.300;2023-05-16T12:42:50;7.97;;;5.55;;
49946;SDS011;35839;48.662;13.300;2023-05-16T12:45:16;9.13;;;5.50;;
49946;SDS011;35839;48.662;13.300;2023-05-16T12:47:42;7.88;;;5.63;;
49946;SDS011;35839;48.662;13.300;2023-05-16T12:50:10;7.03;;;5.88;;
49946;SDS011;35839;48.662;13.300;2023-05-16T12:52:45;7.00;;;6.40;;
49946;SDS011;35839;48.662;13.300;2023-05-16T12:55:18;7.72;;;5.85;;
49946;SDS011;35839;48.662;13.300;2023-05-16T12:57:45;8.65;;;6.85;;
49946;SDS011;35839;48.662;13.300;2023-05-16T13:00:14;6.70;;;5.85;;
49946;SDS011;35839;48.662;13.300;2023-05-16T13:02:46;8.75;;;6.47;;
49946;SDS011;35839;48.662;13.300;2023-05-16T13:05:12;8.15;;;6.47;;
49946;SDS011;35839;48.662;13.300;2023-05-16T13:07:38;7.28;;;6.10;;
49946;SDS011;35839;48.662;13.300;2023-05-16T13:10:05;6.68;;;5.97;;
49946;SDS011;35839;48.662;13.300;2023-05-16T13:12:37;8.02;;;5.55;;
49946;SDS011;35839;48.662;13.300;2023-05-16T13:15:04;8.13;;;6.20;;
49946;SDS011;35839;48.662;13.300;2023-05-16T13:17:34;5.90;;;4.93;;
49946;SDS011;35839;48.662;13.300;2023-05-16T13:20:01;6.32;;;5.07;;
49946;SDS011;35839;48.662;13.300;2023-05-16T13:22:28;17.90;;;14.43;;
49946;SDS011;35839;48.662;13.300;2023-05-16T13:24:54;14.35;;;10.90;;
49946;SDS011;35839;48.662;13.300;2023-05-16T13:27:19;7.50;;;5.50;;
49946;SDS011;35839;48.662;13.300;2023-05-16T13:29:44;5.65;;;4.55;;
49946;SDS011;35839;48.662;13.300;2023-05-16T13:32:10;4.93;;;4.22;;
49946;SDS011;35839;48.662;13.300;2023-05-16T13:34:35;6.50;;;5.30;;
49946;SDS011;35839;48.662;13.300;2023-05-16T13:37:00;7.75;;;5.25;;
49946;SDS011;35839;48.662;13.300;2023-05-16T13:39:26;6.82;;;5.25;;
49946;SDS011;35839;48.662;13.300;2023-05-16T13:41:51;4.80;;;4.30;;
49946;SDS011;35839;48.662;13.300;2023-05-16T13:44:17;5.30;;;4.40;;
49946;SDS011;35839;48.662;13.300;2023-05-16T13:46:42;4.55;;;4.15;;
49946;SDS011;35839;48.662;13.300;2023-05-16T13:49:08;5.25;;;4.70;;
49946;SDS011;35839;48.662;13.300;2023-05-16T13:51:33;7.78;;;4.90;;
49946;SDS011;35839;48.662;13.300;2023-05-16T13:53:58;7.18;;;5.00;;
49946;SDS011;35839;48.662;13.300;2023-05-16T13:56:24;6.30;;;5.57;;
49946;SDS011;35839;48.662;13.300;2023-05-16T13:58:49;6.70;;;4.68;;
49946;SDS011;35839;48.662;13.300;2023-05-16T14:01:15;10.18;;;5.65;;
49946;SDS011;35839;48.662;13.300;2023-05-16T14:03:41;5.60;;;5.10;;
49946;SDS011;35839;48.662;13.300;2023-05-16T14:06:06;7.07;;;5.40;;
49946;SDS011;35839;48.662;13.300;2023-05-16T14:08:31;6.95;;;5.47;;
49946;SDS011;35839;48.662;13.300;2023-05-16T14:10:57;14.40;;;7.22;;
49946;SDS011;35839;48.662;13.300;2023-05-16T14:13:22;12.02;;;7.70;;
49946;SDS011;35839;48.662;13.300;2023-05-16T14:15:47;8.98;;;6.85;;
49946;SDS011;35839;48.662;13.300;2023-05-16T14:18:13;11.20;;;7.35;;
49946;SDS011;35839;48.662;13.300;2023-05-16T14:20:38;11.82;;;8.27;;
49946;SDS011;35839;48.662;13.300;2023-05-16T14:23:03;10.10;;;7.60;;
49946;SDS011;35839;48.662;13.300;2023-05-16T14:25:29;10.70;;;7.60;;
49946;SDS011;35839;48.662;13.300;2023-05-16T14:27:54;8.50;;;7.60;;
49946;SDS011;35839;48.662;13.300;2023-05-16T14:30:20;8.90;;;7.47;;
49946;SDS011;35839;48.662;13.300;2023-05-16T14:32:46;8.15;;;7.35;;
49946;SDS011;35839;48.662;13.300;2023-05-16T14:35:11;10.00;;;7.97;;
49946;SDS011;35839;48.662;13.300;2023-05-16T14:37:36;10.07;;;8.82;;
49946;SDS011;35839;48.662;13.300;2023-05-16T14:40:02;11.43;;;9.10;;
49946;SDS011;35839;48.662;13.300;2023-05-16T14:42:29;9.85;;;7.80;;
49946;SDS011;35839;48.662;13.300;2023-05-16T14:44:55;10.45;;;7.35;;
49946;SDS011;35839;48.662;13.300;2023-05-16T14:47:20;9.57;;;7.00;;
49946;SDS011;35839;48.662;13.300;2023-05-16T14:49:46;6.85;;;5.72;;
49946;SDS011;35839;48.662;13.300;2023-05-16T14:52:11;8.00;;;7.00;;
49946;SDS011;35839;48.662;13.300;2023-05-16T14:54:36;9.60;;;8.35;;
49946;SDS011;35839;48.662;13.300;2023-05-16T14:57:02;11.50;;;9.20;;
49946;SDS011;35839;48.662;13.300;2023-05-16T14:59:28;10.55;;;8.93;;
49946;SDS011;35839;48.662;13.300;2023-05-16T15:01:53;10.40;;;8.70;;
49946;SDS011;35839;48.662;13.300;2023-05-16T15:04:18;9.32;;;7.90;;
49946;SDS011;35839;48.662;13.300;2023-05-16T15:06:44;9.52;;;8.63;;
49946;SDS011;35839;48.662;13.300;2023-05-16T15:09:09;8.93;;;8.02;;
49946;SDS011;35839;48.662;13.300;2023-05-16T15:11:35;9.20;;;8.30;;
49946;SDS011;35839;48.662;13.300;2023-05-16T15:14:00;12.18;;;8.20;;
49946;SDS011;35839;48.662;13.300;2023-05-16T15:16:25;14.40;;;8.80;;
49946;SDS011;35839;48.662;13.300;2023-05-16T15:18:51;11.00;;;9.70;;
49946;SDS011;35839;48.662;13.300;2023-05-16T15:21:16;11.95;;;9.55;;
49946;SDS011;35839;48.662;13.300;2023-05-16T15:23:42;12.15;;;9.90;;
49946;SDS011;35839;48.662;13.300;2023-05-16T15:26:07;11.10;;;9.95;;
49946;SDS011;35839;48.662;13.300;2023-05-16T15:28:33;11.90;;;9.80;;
49946;SDS011;35839;48.662;13.300;2023-05-16T15:30:58;11.77;;;10.05;;
49946;SDS011;35839;48.662;13.300;2023-05-16T15:33:23;10.88;;;9.88;;
49946;SDS011;35839;48.662;13.300;2023-05-16T15:35:49;11.45;;;10.25;;
49946;SDS011;35839;48.662;13.300;2023-05-16T15:38:15;9.85;;;8.55;;
49946;SDS011;35839;48.662;13.300;2023-05-16T15:40:40;10.43;;;9.43;;
49946;SDS011;35839;48.662;13.300;2023-05-16T15:43:05;11.52;;;10.32;;
49946;SDS011;35839;48.662;13.300;2023-05-16T15:45:31;11.50;;;10.50;;
49946;SDS011;35839;48.662;13.300;2023-05-16T15:47:56;11.68;;;10.55;;
49946;SDS011;35839;48.662;13.300;2023-05-16T15:50:22;13.13;;;11.68;;
49946;SDS011;35839;48.662;13.300;2023-05-16T15:52:47;13.65;;;11.57;;
49946;SDS011;35839;48.662;13.300;2023-05-16T15:55:13;12.68;;;11.38;;
49946;SDS011;35839;48.662;13.300;2023-05-16T15:57:39;12.95;;;11.18;;
49946;SDS011;35839;48.662;13.300;2023-05-16T16:00:04;11.88;;;10.75;;
49946;SDS011;35839;48.662;13.300;2023-05-16T16:02:30;11.88;;;10.57;;
49946;SDS011;35839;48.662;13.300;2023-05-16T16:04:55;14.27;;;10.30;;
49946;SDS011;35839;48.662;13.300;2023-05-16T16:07:21;12.35;;;11.20;;
49946;SDS011;35839;48.662;13.300;2023-05-16T16:09:46;12.52;;;11.10;;
49946;SDS011;35839;48.662;13.300;2023-05-16T16:12:11;12.48;;;11.23;;
49946;SDS011;35839;48.662;13.300;2023-05-16T16:14:37;11.45;;;10.35;;
49946;SDS011;35839;48.662;13.300;2023-05-16T16:17:02;11.25;;;10.10;;
49946;SDS011;35839;48.662;13.300;2023-05-16T16:19:27;12.50;;;11.20;;
49946;SDS011;35839;48.662;13.300;2023-05-16T16:21:53;12.95;;;11.73;;
49946;SDS011;35839;48.662;13.300;2023-05-16T16:24:18;13.35;;;12.02;;
49946;SDS011;35839;48.662;13.300;2023-05-16T16:26:46;13.10;;;11.90;;
49946;SDS011;35839;48.662;13.300;2023-05-16T16:29:11;15.00;;;10.95;;
49946;SDS011;35839;48.662;13.300;2023-05-16T16:31:37;13.25;;;11.85;;
49946;SDS011;35839;48.662;13.300;2023-05-16T16:34:02;12.18;;;11.00;;
49946;SDS011;35839;48.662;13.300;2023-05-16T16:36:28;13.15;;;10.65;;
49946;SDS011;35839;48.662;13.300;2023-05-16T16:38:53;12.18;;;10.48;;
49946;SDS011;35839;48.662;13.300;2023-05-16T16:41:18;11.70;;;10.60;;
49946;SDS011;35839;48.662;13.300;2023-05-16T16:43:44;11.88;;;10.48;;
49946;SDS011;35839;48.662;13.300;2023-05-16T16:46:09;13.60;;;12.20;;
49946;SDS011;35839;48.662;13.300;2023-05-16T16:48:35;13.48;;;12.15;;
49946;SDS011;35839;48.662;13.300;2023-05-16T16:51:01;15.70;;;11.60;;
49946;SDS011;35839;48.662;13.300;2023-05-16T16:53:26;13.13;;;11.93;;
49946;SDS011;35839;48.662;13.300;2023-05-16T16:55:52;13.27;;;11.88;;
49946;SDS011;35839;48.662;13.300;2023-05-16T16:58:17;13.18;;;11.77;;
49946;SDS011;35839;48.662;13.300;2023-05-16T17:00:42;12.32;;;11.13;;
49946;SDS011;35839;48.662;13.300;2023-05-16T17:03:08;19.77;;;13.85;;
49946;SDS011;35839;48.662;13.300;2023-05-16T17:05:34;15.57;;;13.48;;
49946;SDS011;35839;48.662;13.300;2023-05-16T17:07:59;14.70;;;12.90;;
49946;SDS011;35839;48.662;13.300;2023-05-16T17:10:25;16.15;;;12.77;;
49946;SDS011;35839;48.662;13.300;2023-05-16T17:12:50;15.68;;;13.93;;
49946;SDS011;35839;48.662;13.300;2023-05-16T17:15:16;16.10;;;14.48;;
49946;SDS011;35839;48.662;13.300;2023-05-16T17:17:42;15.00;;;13.50;;
49946;SDS011;35839;48.662;13.300;2023-05-16T17:20:09;18.95;;;14.02;;
49946;SDS011;35839;48.662;13.300;2023-05-16T17:22:36;18.23;;;14.88;;
49946;SDS011;35839;48.662;13.300;2023-05-16T17:25:02;15.75;;;14.07;;
49946;SDS011;35839;48.662;13.300;2023-05-16T17:27:28;15.45;;;13.88;;
49946;SDS011;35839;48.662;13.300;2023-05-16T17:29:53;16.65;;;14.68;;
49946;SDS011;35839;48.662;13.300;2023-05-16T17:32:18;15.15;;;13.65;;
49946;SDS011;35839;48.662;13.300;2023-05-16T17:34:45;17.73;;;15.38;;
49946;SDS011;35839;48.662;13.300;2023-05-16T17:37:11;16.63;;;14.82;;
49946;SDS011;35839;48.662;13.300;2023-05-16T17:39:37;20.35;;;15.95;;
49946;SDS011;35839;48.662;13.300;2023-05-16T17:42:02;14.82;;;13.23;;
49946;SDS011;35839;48.662;13.300;2023-05-16T17:44:29;14.93;;;12.60;;
49946;SDS011;35839;48.662;13.300;2023-05-16T17:46:55;12.35;;;11.05;;
49946;SDS011;35839;48.662;13.300;2023-05-16T17:49:20;12.35;;;10.98;;
49946;SDS011;35839;48.662;13.300;2023-05-16T17:54:11;10.77;;;9.55;;
49946;SDS011;35839;48.662;13.300;2023-05-16T17:56:36;12.85;;;10.07;;
49946;SDS011;35839;48.662;13.300;2023-05-16T17:59:02;63.03;;;14.85;;
49946;SDS011;35839;48.662;13.300;2023-05-16T18:01:27;56.53;;;37.22;;
49946;SDS011;35839;48.662;13.300;2023-05-16T18:03:52;59.70;;;46.78;;
49946;SDS011;35839;48.662;13.300;2023-05-16T18:06:18;37.83;;;32.63;;
49946;SDS011;35839;48.662;13.300;2023-05-16T18:08:43;13.55;;;11.88;;
49946;SDS011;35839;48.662;13.300;2023-05-16T18:11:08;10.32;;;7.55;;
49946;SDS011;35839;48.662;13.300;2023-05-16T18:13:34;10.88;;;7.63;;
49946;SDS011;35839;48.662;13.300;2023-05-16T18:15:59;9.50;;;7.55;;
49946;SDS011;35839;48.662;13.300;2023-05-16T18:18:25;6.95;;;6.32;;
49946;SDS011;35839;48.662;13.300;2023-05-16T18:20:51;8.98;;;6.85;;
49946;SDS011;35839;48.662;13.300;2023-05-16T18:23:16;10.02;;;6.13;;
49946;SDS011;35839;48.662;13.300;2023-05-16T18:25:42;6.95;;;6.25;;
49946;SDS011;35839;48.662;13.300;2023-05-16T18:28:07;6.75;;;6.00;;
49946;SDS011;35839;48.662;13.300;2023-05-16T18:30:32;7.90;;;5.95;;
49946;SDS011;35839;48.662;13.300;2023-05-16T18:32:58;6.32;;;5.72;;
49946;SDS011;35839;48.662;13.300;2023-05-16T18:35:23;7.07;;;5.53;;
49946;SDS011;35839;48.662;13.300;2023-05-16T18:37:51;8.90;;;5.75;;
49946;SDS011;35839;48.662;13.300;2023-05-16T18:40:16;8.48;;;6.28;;
49946;SDS011;35839;48.662;13.300;2023-05-16T18:42:42;9.50;;;6.28;;
49946;SDS011;35839;48.662;13.300;2023-05-16T18:45:08;7.57;;;6.60;;
49946;SDS011;35839;48.662;13.300;2023-05-16T18:47:33;9.35;;;7.18;;
49946;SDS011;35839;48.662;13.300;2023-05-16T18:49:59;9.82;;;6.15;;
49946;SDS011;35839;48.662;13.300;2023-05-16T18:52:24;14.18;;;7.03;;
49946;SDS011;35839;48.662;13.300;2023-05-16T18:54:50;8.27;;;7.18;;
49946;SDS011;35839;48.662;13.300;2023-05-16T18:57:15;7.85;;;7.13;;
49946;SDS011;35839;48.662;13.300;2023-05-16T18:59:40;9.18;;;7.78;;
49946;SDS011;35839;48.662;13.300;2023-05-16T19:02:06;9.07;;;7.07;;
49946;SDS011;35839;48.662;13.300;2023-05-16T19:04:31;9.35;;;7.47;;
49946;SDS011;35839;48.662;13.300;2023-05-16T19:06:56;8.68;;;7.80;;
49946;SDS011;35839;48.662;13.300;2023-05-16T19:09:22;9.38;;;8.07;;
49946;SDS011;35839;48.662;13.300;2023-05-16T19:11:48;10.88;;;8.52;;
49946;SDS011;35839;48.662;13.300;2023-05-16T19:14:14;9.23;;;8.32;;
49946;SDS011;35839;48.662;13.300;2023-05-16T19:16:39;11.20;;;9.82;;
49946;SDS011;35839;48.662;13.300;2023-05-16T19:19:05;12.55;;;10.70;;
49946;SDS011;35839;48.662;13.300;2023-05-16T19:21:31;11.10;;;10.10;;
49946;SDS011;35839;48.662;13.300;2023-05-16T19:23:57;13.07;;;10.60;;
49946;SDS011;35839;48.662;13.300;2023-05-16T19:26:22;13.20;;;11.80;;
49946;SDS011;35839;48.662;13.300;2023-05-16T19:28:48;12.27;;;10.98;;